sensor_id;sensor_type;location;lat;lon;timestamp;P1;durP1;ratioP1;P2;durP2;ratioP2
46777;SDS011;32536;47.128;8.746;2022-12-24T00:00:07;1.08;;;0.60;;
46777;SDS011;32536;47.128;8.746;2022-12-24T00:02:35;1.35;;;0.95;;
46777;SDS011;32536;47.128;8.746;2022-12-24T00:05:02;1.40;;;0.88;;
46777;SDS011;32536;47.128;8.746;2022-12-24T00:07:29;1.83;;;1.73;;
46777;SDS011;32536;47.128;8.746;2022-12-24T00:09:56;1.35;;;0.88;;
46777;SDS011;32536;47.128;8.746;2022-12-24T00:12:23;1.23;;;0.80;;
46777;SDS011;32536;47.128;8.746;2022-12-24T00:14:50;2.97;;;0.93;;
46777;SDS011;32536;47.128;8.746;2022-12-24T00:17:17;1.52;;;0.75;;
46777;SDS011;32536;47.128;8.746;2022-12-24T00:19:44;1.27;;;0.68;;
46777;SDS011;32536;47.128;8.746;2022-12-24T00:22:11;2.08;;;1.05;;
46777;SDS011;32536;47.128;8.746;2022-12-24T00:24:37;1.20;;;0.73;;
46777;SDS011;32536;47.128;8.746;2022-12-24T00:27:04;1.73;;;0.95;;
46777;SDS011;32536;47.128;8.746;2022-12-24T00:29:31;0.85;;;0.70;;
46777;SDS011;32536;47.128;8.746;2022-12-24T00:31:59;1.13;;;0.77;;
46777;SDS011;32536;47.128;8.746;2022-12-24T00:34:26;1.83;;;1.60;;
46777;SDS011;32536;47.128;8.746;2022-12-24T00:36:53;0.82;;;0.70;;
46777;SDS011;32536;47.128;8.746;2022-12-24T00:39:20;1.20;;;0.85;;
46777;SDS011;32536;47.128;8.746;2022-12-24T00:41:47;1.35;;;0.80;;
46777;SDS011;32536;47.128;8.746;2022-12-24T00:44:13;1.35;;;0.65;;
46777;SDS011;32536;47.128;8.746;2022-12-24T00:46:41;1.17;;;0.95;;
46777;SDS011;32536;47.128;8.746;2022-12-24T00:49:08;1.25;;;0.80;;
46777;SDS011;32536;47.128;8.746;2022-12-24T00:51:37;1.25;;;0.80;;
46777;SDS011;32536;47.128;8.746;2022-12-24T00:54:04;2.30;;;0.90;;
46777;SDS011;32536;47.128;8.746;2022-12-24T00:56:32;1.10;;;0.70;;
46777;SDS011;32536;47.128;8.746;2022-12-24T00:58:59;1.17;;;0.85;;
46777;SDS011;32536;47.128;8.746;2022-12-24T01:01:26;1.85;;;1.23;;
46777;SDS011;32536;47.128;8.746;2022-12-24T01:03:53;1.35;;;0.93;;
46777;SDS011;32536;47.128;8.746;2022-12-24T01:06:41;1.55;;;0.73;;
46777;SDS011;32536;47.128;8.746;2022-12-24T01:09:08;1.23;;;0.77;;
46777;SDS011;32536;47.128;8.746;2022-12-24T01:11:35;1.88;;;0.90;;
46777;SDS011;32536;47.128;8.746;2022-12-24T01:14:01;1.08;;;0.90;;
46777;SDS011;32536;47.128;8.746;2022-12-24T01:16:28;3.45;;;0.82;;
46777;SDS011;32536;47.128;8.746;2022-12-24T01:18:55;1.25;;;0.77;;
46777;SDS011;32536;47.128;8.746;2022-12-24T01:21:22;1.00;;;0.60;;
46777;SDS011;32536;47.128;8.746;2022-12-24T01:23:48;1.67;;;0.80;;
46777;SDS011;32536;47.128;8.746;2022-12-24T01:26:15;1.27;;;0.90;;
46777;SDS011;32536;47.128;8.746;2022-12-24T01:28:42;1.13;;;0.70;;
46777;SDS011;32536;47.128;8.746;2022-12-24T01:31:09;1.67;;;0.75;;
46777;SDS011;32536;47.128;8.746;2022-12-24T01:33:42;2.38;;;0.75;;
46777;SDS011;32536;47.128;8.746;2022-12-24T01:36:09;1.00;;;0.70;;
46777;SDS011;32536;47.128;8.746;2022-12-24T01:38:37;1.95;;;1.52;;
46777;SDS011;32536;47.128;8.746;2022-12-24T01:41:05;0.90;;;0.40;;
46777;SDS011;32536;47.128;8.746;2022-12-24T01:43:50;2.63;;;1.98;;
46777;SDS011;32536;47.128;8.746;2022-12-24T01:46:18;1.70;;;1.33;;
46777;SDS011;32536;47.128;8.746;2022-12-24T01:48:52;2.63;;;0.93;;
46777;SDS011;32536;47.128;8.746;2022-12-24T01:54:10;1.15;;;0.93;;
46777;SDS011;32536;47.128;8.746;2022-12-24T01:56:55;0.95;;;0.65;;
46777;SDS011;32536;47.128;8.746;2022-12-24T01:59:48;1.33;;;0.95;;
46777;SDS011;32536;47.128;8.746;2022-12-24T02:02:22;1.08;;;0.70;;
46777;SDS011;32536;47.128;8.746;2022-12-24T02:07:31;2.03;;;0.80;;
46777;SDS011;32536;47.128;8.746;2022-12-24T02:09:59;1.58;;;0.80;;
46777;SDS011;32536;47.128;8.746;2022-12-24T02:12:28;1.20;;;1.00;;
46777;SDS011;32536;47.128;8.746;2022-12-24T02:15:00;1.15;;;0.85;;
46777;SDS011;32536;47.128;8.746;2022-12-24T02:17:51;2.25;;;0.85;;
46777;SDS011;32536;47.128;8.746;2022-12-24T02:36:04;1.08;;;0.82;;
46777;SDS011;32536;47.128;8.746;2022-12-24T02:41:44;1.35;;;0.82;;
46777;SDS011;32536;47.128;8.746;2022-12-24T02:44:38;1.13;;;0.43;;
46777;SDS011;32536;47.128;8.746;2022-12-24T02:47:10;0.98;;;0.70;;
46777;SDS011;32536;47.128;8.746;2022-12-24T02:49:42;1.15;;;0.85;;
46777;SDS011;32536;47.128;8.746;2022-12-24T02:52:31;1.55;;;0.85;;
46777;SDS011;32536;47.128;8.746;2022-12-24T02:55:02;0.90;;;0.70;;
46777;SDS011;32536;47.128;8.746;2022-12-24T03:06:42;1.13;;;0.98;;
46777;SDS011;32536;47.128;8.746;2022-12-24T03:09:19;1.30;;;0.82;;
46777;SDS011;32536;47.128;8.746;2022-12-24T03:11:54;1.25;;;0.90;;
46777;SDS011;32536;47.128;8.746;2022-12-24T03:14:37;0.88;;;0.50;;
46777;SDS011;32536;47.128;8.746;2022-12-24T03:17:06;0.90;;;0.73;;
46777;SDS011;32536;47.128;8.746;2022-12-24T03:19:35;1.15;;;0.82;;
46777;SDS011;32536;47.128;8.746;2022-12-24T03:22:03;1.20;;;1.10;;
46777;SDS011;32536;47.128;8.746;2022-12-24T03:24:35;1.00;;;0.40;;
46777;SDS011;32536;47.128;8.746;2022-12-24T03:27:03;0.52;;;0.40;;
46777;SDS011;32536;47.128;8.746;2022-12-24T03:29:32;2.83;;;1.15;;
46777;SDS011;32536;47.128;8.746;2022-12-24T03:32:01;2.05;;;0.88;;
46777;SDS011;32536;47.128;8.746;2022-12-24T03:34:29;1.33;;;0.80;;
46777;SDS011;32536;47.128;8.746;2022-12-24T03:36:56;1.58;;;0.90;;
46777;SDS011;32536;47.128;8.746;2022-12-24T03:39:23;1.30;;;0.80;;
46777;SDS011;32536;47.128;8.746;2022-12-24T03:41:50;1.65;;;1.55;;
46777;SDS011;32536;47.128;8.746;2022-12-24T03:44:17;0.80;;;0.63;;
46777;SDS011;32536;47.128;8.746;2022-12-24T03:46:43;1.00;;;0.68;;
46777;SDS011;32536;47.128;8.746;2022-12-24T03:49:10;0.98;;;0.50;;
46777;SDS011;32536;47.128;8.746;2022-12-24T03:51:37;1.38;;;0.88;;
46777;SDS011;32536;47.128;8.746;2022-12-24T03:54:04;1.35;;;0.90;;
46777;SDS011;32536;47.128;8.746;2022-12-24T03:56:30;1.70;;;0.85;;
46777;SDS011;32536;47.128;8.746;2022-12-24T03:58:57;1.58;;;0.82;;
46777;SDS011;32536;47.128;8.746;2022-12-24T04:01:24;1.20;;;0.82;;
46777;SDS011;32536;47.128;8.746;2022-12-24T04:03:50;1.05;;;0.90;;
46777;SDS011;32536;47.128;8.746;2022-12-24T04:06:17;1.20;;;0.90;;
46777;SDS011;32536;47.128;8.746;2022-12-24T04:08:44;1.10;;;0.93;;
46777;SDS011;32536;47.128;8.746;2022-12-24T04:11:12;1.00;;;0.82;;
46777;SDS011;32536;47.128;8.746;2022-12-24T04:13:40;0.82;;;0.70;;
46777;SDS011;32536;47.128;8.746;2022-12-24T04:16:08;0.80;;;0.70;;
46777;SDS011;32536;47.128;8.746;2022-12-24T04:18:39;1.48;;;0.95;;
46777;SDS011;32536;47.128;8.746;2022-12-24T04:21:07;1.55;;;1.17;;
46777;SDS011;32536;47.128;8.746;2022-12-24T04:23:35;1.15;;;0.77;;
46777;SDS011;32536;47.128;8.746;2022-12-24T04:26:05;1.10;;;0.77;;
46777;SDS011;32536;47.128;8.746;2022-12-24T04:28:34;1.20;;;0.85;;
46777;SDS011;32536;47.128;8.746;2022-12-24T04:31:03;1.25;;;0.95;;
46777;SDS011;32536;47.128;8.746;2022-12-24T04:33:39;1.10;;;0.80;;
46777;SDS011;32536;47.128;8.746;2022-12-24T04:36:06;1.63;;;0.73;;
46777;SDS011;32536;47.128;8.746;2022-12-24T04:38:39;1.10;;;0.70;;
46777;SDS011;32536;47.128;8.746;2022-12-24T04:41:07;1.05;;;0.80;;
46777;SDS011;32536;47.128;8.746;2022-12-24T04:43:39;1.17;;;0.93;;
46777;SDS011;32536;47.128;8.746;2022-12-24T04:46:07;1.20;;;0.90;;
46777;SDS011;32536;47.128;8.746;2022-12-24T04:48:42;1.45;;;0.88;;
46777;SDS011;32536;47.128;8.746;2022-12-24T04:51:15;1.42;;;1.05;;
46777;SDS011;32536;47.128;8.746;2022-12-24T04:53:43;1.15;;;0.90;;
46777;SDS011;32536;47.128;8.746;2022-12-24T04:56:13;1.10;;;0.88;;
46777;SDS011;32536;47.128;8.746;2022-12-24T04:58:45;1.73;;;0.80;;
46777;SDS011;32536;47.128;8.746;2022-12-24T05:01:13;0.80;;;0.70;;
46777;SDS011;32536;47.128;8.746;2022-12-24T05:03:48;0.70;;;0.60;;
46777;SDS011;32536;47.128;8.746;2022-12-24T05:06:17;0.90;;;0.60;;
46777;SDS011;32536;47.128;8.746;2022-12-24T05:08:47;0.73;;;0.50;;
46777;SDS011;32536;47.128;8.746;2022-12-24T05:11:14;0.85;;;0.60;;
46777;SDS011;32536;47.128;8.746;2022-12-24T05:13:42;1.25;;;0.70;;
46777;SDS011;32536;47.128;8.746;2022-12-24T05:16:10;1.15;;;0.95;;
46777;SDS011;32536;47.128;8.746;2022-12-24T05:18:38;0.75;;;0.60;;
46777;SDS011;32536;47.128;8.746;2022-12-24T05:21:15;0.85;;;0.65;;
46777;SDS011;32536;47.128;8.746;2022-12-24T05:23:46;1.95;;;0.80;;
46777;SDS011;32536;47.128;8.746;2022-12-24T05:29:02;1.77;;;0.82;;
46777;SDS011;32536;47.128;8.746;2022-12-24T05:31:32;2.08;;;0.70;;
46777;SDS011;32536;47.128;8.746;2022-12-24T05:33:59;1.23;;;0.80;;
46777;SDS011;32536;47.128;8.746;2022-12-24T05:36:27;2.30;;;0.98;;
46777;SDS011;32536;47.128;8.746;2022-12-24T05:38:54;0.70;;;0.50;;
46777;SDS011;32536;47.128;8.746;2022-12-24T05:41:21;1.52;;;1.05;;
46777;SDS011;32536;47.128;8.746;2022-12-24T05:43:49;2.60;;;1.02;;
46777;SDS011;32536;47.128;8.746;2022-12-24T05:46:17;0.80;;;0.57;;
46777;SDS011;32536;47.128;8.746;2022-12-24T05:48:46;1.25;;;0.80;;
46777;SDS011;32536;47.128;8.746;2022-12-24T05:51:14;1.58;;;0.80;;
46777;SDS011;32536;47.128;8.746;2022-12-24T05:53:47;1.10;;;0.75;;
46777;SDS011;32536;47.128;8.746;2022-12-24T05:56:17;1.35;;;0.98;;
46777;SDS011;32536;47.128;8.746;2022-12-24T05:58:46;0.77;;;0.43;;
46777;SDS011;32536;47.128;8.746;2022-12-24T06:01:13;1.55;;;0.77;;
46777;SDS011;32536;47.128;8.746;2022-12-24T06:03:41;1.55;;;1.13;;
46777;SDS011;32536;47.128;8.746;2022-12-24T06:06:12;2.13;;;1.05;;
46777;SDS011;32536;47.128;8.746;2022-12-24T06:08:43;2.35;;;0.88;;
46777;SDS011;32536;47.128;8.746;2022-12-24T06:11:12;1.23;;;0.85;;
46777;SDS011;32536;47.128;8.746;2022-12-24T06:13:41;0.95;;;0.70;;
46777;SDS011;32536;47.128;8.746;2022-12-24T06:16:11;1.65;;;1.20;;
46777;SDS011;32536;47.128;8.746;2022-12-24T06:18:41;1.15;;;0.80;;
46777;SDS011;32536;47.128;8.746;2022-12-24T06:21:09;1.25;;;0.73;;
46777;SDS011;32536;47.128;8.746;2022-12-24T06:23:37;1.55;;;0.88;;
46777;SDS011;32536;47.128;8.746;2022-12-24T06:26:07;2.22;;;1.35;;
46777;SDS011;32536;47.128;8.746;2022-12-24T06:28:36;1.35;;;0.98;;
46777;SDS011;32536;47.128;8.746;2022-12-24T06:31:04;2.33;;;1.23;;
46777;SDS011;32536;47.128;8.746;2022-12-24T06:33:32;1.25;;;0.82;;
46777;SDS011;32536;47.128;8.746;2022-12-24T06:35:59;2.00;;;1.05;;
46777;SDS011;32536;47.128;8.746;2022-12-24T06:38:28;1.67;;;0.90;;
46777;SDS011;32536;47.128;8.746;2022-12-24T06:40:55;1.67;;;0.98;;
46777;SDS011;32536;47.128;8.746;2022-12-24T06:43:22;1.20;;;0.85;;
46777;SDS011;32536;47.128;8.746;2022-12-24T06:45:49;1.30;;;0.95;;
46777;SDS011;32536;47.128;8.746;2022-12-24T06:48:16;1.45;;;1.00;;
46777;SDS011;32536;47.128;8.746;2022-12-24T06:50:43;1.27;;;0.80;;
46777;SDS011;32536;47.128;8.746;2022-12-24T06:53:09;0.70;;;0.47;;
46777;SDS011;32536;47.128;8.746;2022-12-24T06:55:36;1.10;;;0.80;;
46777;SDS011;32536;47.128;8.746;2022-12-24T06:58:04;1.33;;;0.95;;
46777;SDS011;32536;47.128;8.746;2022-12-24T07:00:30;1.27;;;1.17;;
46777;SDS011;32536;47.128;8.746;2022-12-24T07:02:57;1.40;;;1.05;;
46777;SDS011;32536;47.128;8.746;2022-12-24T07:05:24;1.10;;;0.80;;
46777;SDS011;32536;47.128;8.746;2022-12-24T07:07:52;0.90;;;0.70;;
46777;SDS011;32536;47.128;8.746;2022-12-24T07:10:19;1.15;;;0.60;;
46777;SDS011;32536;47.128;8.746;2022-12-24T07:12:46;1.45;;;0.90;;
46777;SDS011;32536;47.128;8.746;2022-12-24T07:15:14;1.88;;;1.63;;
46777;SDS011;32536;47.128;8.746;2022-12-24T07:17:41;1.20;;;0.82;;
46777;SDS011;32536;47.128;8.746;2022-12-24T07:20:09;0.98;;;0.73;;
46777;SDS011;32536;47.128;8.746;2022-12-24T07:22:39;1.08;;;0.85;;
46777;SDS011;32536;47.128;8.746;2022-12-24T07:25:07;1.60;;;1.00;;
46777;SDS011;32536;47.128;8.746;2022-12-24T07:27:34;1.55;;;0.90;;
46777;SDS011;32536;47.128;8.746;2022-12-24T07:30:02;0.82;;;0.70;;
46777;SDS011;32536;47.128;8.746;2022-12-24T07:32:29;0.70;;;0.60;;
46777;SDS011;32536;47.128;8.746;2022-12-24T07:34:56;0.95;;;0.85;;
46777;SDS011;32536;47.128;8.746;2022-12-24T07:37:23;0.88;;;0.50;;
46777;SDS011;32536;47.128;8.746;2022-12-24T07:39:50;1.23;;;0.93;;
46777;SDS011;32536;47.128;8.746;2022-12-24T07:42:17;1.23;;;0.90;;
46777;SDS011;32536;47.128;8.746;2022-12-24T07:44:43;0.95;;;0.85;;
46777;SDS011;32536;47.128;8.746;2022-12-24T07:47:10;0.68;;;0.52;;
46777;SDS011;32536;47.128;8.746;2022-12-24T07:49:37;0.70;;;0.60;;
46777;SDS011;32536;47.128;8.746;2022-12-24T07:52:04;1.02;;;0.75;;
46777;SDS011;32536;47.128;8.746;2022-12-24T07:54:31;0.95;;;0.60;;
46777;SDS011;32536;47.128;8.746;2022-12-24T07:56:57;0.80;;;0.63;;
46777;SDS011;32536;47.128;8.746;2022-12-24T07:59:24;0.85;;;0.73;;
46777;SDS011;32536;47.128;8.746;2022-12-24T08:01:51;0.70;;;0.60;;
46777;SDS011;32536;47.128;8.746;2022-12-24T08:04:18;1.08;;;0.77;;
46777;SDS011;32536;47.128;8.746;2022-12-24T08:06:45;0.73;;;0.60;;
46777;SDS011;32536;47.128;8.746;2022-12-24T08:09:11;1.02;;;0.80;;
46777;SDS011;32536;47.128;8.746;2022-12-24T08:11:39;0.63;;;0.40;;
46777;SDS011;32536;47.128;8.746;2022-12-24T08:14:06;0.85;;;0.50;;
46777;SDS011;32536;47.128;8.746;2022-12-24T08:16:33;0.90;;;0.70;;
46777;SDS011;32536;47.128;8.746;2022-12-24T08:19:00;1.02;;;0.80;;
46777;SDS011;32536;47.128;8.746;2022-12-24T08:21:26;1.02;;;0.75;;
46777;SDS011;32536;47.128;8.746;2022-12-24T08:23:53;0.93;;;0.82;;
46777;SDS011;32536;47.128;8.746;2022-12-24T08:26:20;0.85;;;0.77;;
46777;SDS011;32536;47.128;8.746;2022-12-24T08:28:46;1.27;;;0.95;;
46777;SDS011;32536;47.128;8.746;2022-12-24T08:31:13;0.65;;;0.57;;
46777;SDS011;32536;47.128;8.746;2022-12-24T08:33:40;0.80;;;0.68;;
46777;SDS011;32536;47.128;8.746;2022-12-24T08:36:07;1.42;;;1.25;;
46777;SDS011;32536;47.128;8.746;2022-12-24T08:38:34;0.63;;;0.45;;
46777;SDS011;32536;47.128;8.746;2022-12-24T08:41:01;0.73;;;0.47;;
46777;SDS011;32536;47.128;8.746;2022-12-24T08:43:27;0.93;;;0.60;;
46777;SDS011;32536;47.128;8.746;2022-12-24T08:45:54;0.98;;;0.80;;
46777;SDS011;32536;47.128;8.746;2022-12-24T08:48:26;0.80;;;0.55;;
46777;SDS011;32536;47.128;8.746;2022-12-24T08:50:52;1.15;;;1.05;;
46777;SDS011;32536;47.128;8.746;2022-12-24T08:53:19;0.70;;;0.60;;
46777;SDS011;32536;47.128;8.746;2022-12-24T08:55:46;1.30;;;0.88;;
46777;SDS011;32536;47.128;8.746;2022-12-24T08:58:13;1.25;;;0.85;;
46777;SDS011;32536;47.128;8.746;2022-12-24T09:00:40;1.65;;;1.15;;
46777;SDS011;32536;47.128;8.746;2022-12-24T09:03:09;1.17;;;0.70;;
46777;SDS011;32536;47.128;8.746;2022-12-24T09:05:39;1.15;;;0.80;;
46777;SDS011;32536;47.128;8.746;2022-12-24T09:08:06;0.75;;;0.50;;
46777;SDS011;32536;47.128;8.746;2022-12-24T09:10:32;1.10;;;0.85;;
46777;SDS011;32536;47.128;8.746;2022-12-24T09:12:59;1.10;;;0.70;;
46777;SDS011;32536;47.128;8.746;2022-12-24T09:15:26;1.77;;;1.17;;
46777;SDS011;32536;47.128;8.746;2022-12-24T09:17:52;1.75;;;1.00;;
46777;SDS011;32536;47.128;8.746;2022-12-24T09:20:19;1.65;;;0.80;;
46777;SDS011;32536;47.128;8.746;2022-12-24T09:22:46;1.95;;;0.98;;
46777;SDS011;32536;47.128;8.746;2022-12-24T09:25:13;1.83;;;1.25;;
46777;SDS011;32536;47.128;8.746;2022-12-24T09:27:39;2.30;;;0.98;;
46777;SDS011;32536;47.128;8.746;2022-12-24T09:30:06;2.03;;;1.17;;
46777;SDS011;32536;47.128;8.746;2022-12-24T09:32:34;1.90;;;1.40;;
46777;SDS011;32536;47.128;8.746;2022-12-24T09:35:01;1.55;;;0.93;;
46777;SDS011;32536;47.128;8.746;2022-12-24T09:37:28;1.42;;;1.13;;
46777;SDS011;32536;47.128;8.746;2022-12-24T09:39:55;1.05;;;0.80;;
46777;SDS011;32536;47.128;8.746;2022-12-24T09:45:17;1.23;;;1.05;;
46777;SDS011;32536;47.128;8.746;2022-12-24T09:47:57;2.22;;;1.40;;
46777;SDS011;32536;47.128;8.746;2022-12-24T09:53:20;1.30;;;0.80;;
46777;SDS011;32536;47.128;8.746;2022-12-24T09:56:15;1.88;;;0.88;;
46777;SDS011;32536;47.128;8.746;2022-12-24T09:58:47;1.63;;;1.17;;
46777;SDS011;32536;47.128;8.746;2022-12-24T10:01:18;0.85;;;0.60;;
46777;SDS011;32536;47.128;8.746;2022-12-24T10:03:46;1.70;;;1.05;;
46777;SDS011;32536;47.128;8.746;2022-12-24T10:06:30;1.58;;;0.90;;
46777;SDS011;32536;47.128;8.746;2022-12-24T10:12:15;1.38;;;0.93;;
46777;SDS011;32536;47.128;8.746;2022-12-24T10:22:59;2.03;;;0.80;;
46777;SDS011;32536;47.128;8.746;2022-12-24T10:25:43;1.88;;;1.00;;
46777;SDS011;32536;47.128;8.746;2022-12-24T10:28:22;2.03;;;0.95;;
46777;SDS011;32536;47.128;8.746;2022-12-24T10:31:02;1.75;;;0.93;;
46777;SDS011;32536;47.128;8.746;2022-12-24T10:33:35;1.50;;;1.15;;
46777;SDS011;32536;47.128;8.746;2022-12-24T10:36:18;1.63;;;1.05;;
46777;SDS011;32536;47.128;8.746;2022-12-24T10:38:50;0.88;;;0.65;;
46777;SDS011;32536;47.128;8.746;2022-12-24T10:41:17;1.10;;;0.70;;
46777;SDS011;32536;47.128;8.746;2022-12-24T10:43:44;1.10;;;0.80;;
46777;SDS011;32536;47.128;8.746;2022-12-24T10:48:50;0.70;;;0.60;;
46777;SDS011;32536;47.128;8.746;2022-12-24T10:54:26;1.10;;;0.95;;
46777;SDS011;32536;47.128;8.746;2022-12-24T10:57:04;1.25;;;0.95;;
46777;SDS011;32536;47.128;8.746;2022-12-24T10:59:49;1.30;;;0.80;;
46777;SDS011;32536;47.128;8.746;2022-12-24T11:02:36;2.08;;;1.42;;
46777;SDS011;32536;47.128;8.746;2022-12-24T11:05:26;1.77;;;1.30;;
46777;SDS011;32536;47.128;8.746;2022-12-24T11:10:41;1.00;;;0.80;;
46777;SDS011;32536;47.128;8.746;2022-12-24T11:13:24;1.17;;;0.98;;
46777;SDS011;32536;47.128;8.746;2022-12-24T11:16:05;1.00;;;0.60;;
46777;SDS011;32536;47.128;8.746;2022-12-24T11:18:55;1.00;;;0.63;;
46777;SDS011;32536;47.128;8.746;2022-12-24T11:21:29;1.17;;;1.05;;
46777;SDS011;32536;47.128;8.746;2022-12-24T11:24:07;0.82;;;0.70;;
46777;SDS011;32536;47.128;8.746;2022-12-24T11:26:50;1.02;;;0.65;;
46777;SDS011;32536;47.128;8.746;2022-12-24T11:29:21;2.65;;;1.23;;
46777;SDS011;32536;47.128;8.746;2022-12-24T11:32:09;2.03;;;1.10;;
46777;SDS011;32536;47.128;8.746;2022-12-24T11:34:47;1.52;;;0.90;;
46777;SDS011;32536;47.128;8.746;2022-12-24T11:37:18;1.95;;;1.15;;
46777;SDS011;32536;47.128;8.746;2022-12-24T11:39:55;1.17;;;0.93;;
46777;SDS011;32536;47.128;8.746;2022-12-24T11:44:58;1.15;;;0.60;;
46777;SDS011;32536;47.128;8.746;2022-12-24T11:47:32;1.35;;;0.82;;
46777;SDS011;32536;47.128;8.746;2022-12-24T11:50:21;1.40;;;0.70;;
46777;SDS011;32536;47.128;8.746;2022-12-24T11:55:48;1.40;;;0.85;;
46777;SDS011;32536;47.128;8.746;2022-12-24T12:06:36;0.77;;;0.52;;
46777;SDS011;32536;47.128;8.746;2022-12-24T12:09:20;1.63;;;0.60;;
46777;SDS011;32536;47.128;8.746;2022-12-24T12:14:54;0.75;;;0.70;;
46777;SDS011;32536;47.128;8.746;2022-12-24T12:20:24;1.25;;;0.95;;
46777;SDS011;32536;47.128;8.746;2022-12-24T12:28:45;1.40;;;0.90;;
46777;SDS011;32536;47.128;8.746;2022-12-24T12:31:35;1.63;;;1.10;;
46777;SDS011;32536;47.128;8.746;2022-12-24T12:34:09;1.35;;;0.82;;
46777;SDS011;32536;47.128;8.746;2022-12-24T12:36:44;1.15;;;0.80;;
46777;SDS011;32536;47.128;8.746;2022-12-24T12:39:15;0.98;;;0.80;;
46777;SDS011;32536;47.128;8.746;2022-12-24T12:41:53;1.35;;;0.75;;
46777;SDS011;32536;47.128;8.746;2022-12-24T12:53:32;0.95;;;0.70;;
46777;SDS011;32536;47.128;8.746;2022-12-24T12:56:29;0.82;;;0.63;;
46777;SDS011;32536;47.128;8.746;2022-12-24T13:17:16;1.13;;;0.77;;
46777;SDS011;32536;47.128;8.746;2022-12-24T13:20:22;1.75;;;1.05;;
46777;SDS011;32536;47.128;8.746;2022-12-24T13:23:02;1.98;;;0.93;;
46777;SDS011;32536;47.128;8.746;2022-12-24T13:25:45;1.50;;;0.82;;
46777;SDS011;32536;47.128;8.746;2022-12-24T13:33:45;1.10;;;0.65;;
46777;SDS011;32536;47.128;8.746;2022-12-24T13:36:16;1.33;;;0.77;;
46777;SDS011;32536;47.128;8.746;2022-12-24T13:38:47;1.05;;;0.77;;
46777;SDS011;32536;47.128;8.746;2022-12-24T13:49:54;1.17;;;0.93;;
46777;SDS011;32536;47.128;8.746;2022-12-24T13:52:24;1.42;;;1.33;;
46777;SDS011;32536;47.128;8.746;2022-12-24T14:00:41;1.15;;;0.85;;
46777;SDS011;32536;47.128;8.746;2022-12-24T14:04:03;1.73;;;0.85;;
46777;SDS011;32536;47.128;8.746;2022-12-24T14:06:32;2.95;;;2.13;;
46777;SDS011;32536;47.128;8.746;2022-12-24T14:09:09;1.70;;;1.00;;
46777;SDS011;32536;47.128;8.746;2022-12-24T14:14:42;1.77;;;1.13;;
46777;SDS011;32536;47.128;8.746;2022-12-24T14:17:25;2.10;;;1.17;;
46777;SDS011;32536;47.128;8.746;2022-12-24T14:19:59;2.10;;;1.00;;
46777;SDS011;32536;47.128;8.746;2022-12-24T14:22:29;2.17;;;0.93;;
46777;SDS011;32536;47.128;8.746;2022-12-24T14:25:02;2.10;;;0.98;;
46777;SDS011;32536;47.128;8.746;2022-12-24T14:27:45;1.25;;;0.90;;
46777;SDS011;32536;47.128;8.746;2022-12-24T14:30:28;1.25;;;1.15;;
46777;SDS011;32536;47.128;8.746;2022-12-24T14:32:56;1.17;;;0.73;;
46777;SDS011;32536;47.128;8.746;2022-12-24T14:38:03;0.90;;;0.68;;
46777;SDS011;32536;47.128;8.746;2022-12-24T14:40:42;1.13;;;0.80;;
46777;SDS011;32536;47.128;8.746;2022-12-24T14:43:39;0.93;;;0.70;;
46777;SDS011;32536;47.128;8.746;2022-12-24T14:46:21;1.90;;;1.70;;
46777;SDS011;32536;47.128;8.746;2022-12-24T14:49:02;0.88;;;0.70;;
46777;SDS011;32536;47.128;8.746;2022-12-24T14:51:35;1.15;;;0.95;;
46777;SDS011;32536;47.128;8.746;2022-12-24T14:54:36;1.05;;;0.73;;
46777;SDS011;32536;47.128;8.746;2022-12-24T15:02:37;1.20;;;0.77;;
46777;SDS011;32536;47.128;8.746;2022-12-24T15:05:24;1.23;;;0.88;;
46777;SDS011;32536;47.128;8.746;2022-12-24T15:16:07;1.15;;;0.90;;
46777;SDS011;32536;47.128;8.746;2022-12-24T15:18:41;1.58;;;1.00;;
46777;SDS011;32536;47.128;8.746;2022-12-24T15:21:32;1.20;;;0.90;;
46777;SDS011;32536;47.128;8.746;2022-12-24T15:24:22;0.88;;;0.75;;
46777;SDS011;32536;47.128;8.746;2022-12-24T15:27:02;1.65;;;0.63;;
46777;SDS011;32536;47.128;8.746;2022-12-24T15:29:43;1.73;;;1.00;;
46777;SDS011;32536;47.128;8.746;2022-12-24T15:32:14;1.10;;;0.95;;
46777;SDS011;32536;47.128;8.746;2022-12-24T15:34:44;1.48;;;0.93;;
46777;SDS011;32536;47.128;8.746;2022-12-24T15:37:20;1.10;;;0.82;;
46777;SDS011;32536;47.128;8.746;2022-12-24T15:40:03;1.45;;;1.13;;
46777;SDS011;32536;47.128;8.746;2022-12-24T15:42:33;1.05;;;0.68;;
46777;SDS011;32536;47.128;8.746;2022-12-24T15:45:11;1.33;;;0.82;;
46777;SDS011;32536;47.128;8.746;2022-12-24T15:47:47;1.00;;;0.50;;
46777;SDS011;32536;47.128;8.746;2022-12-24T15:50:32;2.33;;;1.02;;
46777;SDS011;32536;47.128;8.746;2022-12-24T15:53:06;1.55;;;0.65;;
46777;SDS011;32536;47.128;8.746;2022-12-24T15:55:40;1.10;;;0.52;;
46777;SDS011;32536;47.128;8.746;2022-12-24T15:58:31;1.77;;;1.02;;
46777;SDS011;32536;47.128;8.746;2022-12-24T16:03:35;1.02;;;0.80;;
46777;SDS011;32536;47.128;8.746;2022-12-24T16:06:05;1.00;;;0.45;;
46777;SDS011;32536;47.128;8.746;2022-12-24T16:08:36;1.30;;;0.70;;
46777;SDS011;32536;47.128;8.746;2022-12-24T16:13:43;1.05;;;0.75;;
46777;SDS011;32536;47.128;8.746;2022-12-24T16:16:33;1.65;;;1.15;;
46777;SDS011;32536;47.128;8.746;2022-12-24T16:19:04;2.58;;;1.38;;
46777;SDS011;32536;47.128;8.746;2022-12-24T16:21:40;3.28;;;1.55;;
46777;SDS011;32536;47.128;8.746;2022-12-24T16:26:49;2.92;;;1.45;;
46777;SDS011;32536;47.128;8.746;2022-12-24T16:29:17;3.47;;;1.83;;
46777;SDS011;32536;47.128;8.746;2022-12-24T16:34:17;4.60;;;1.98;;
46777;SDS011;32536;47.128;8.746;2022-12-24T16:36:47;3.42;;;2.05;;
46777;SDS011;32536;47.128;8.746;2022-12-24T16:39:15;3.25;;;1.65;;
46777;SDS011;32536;47.128;8.746;2022-12-24T16:41:58;4.10;;;2.20;;
46777;SDS011;32536;47.128;8.746;2022-12-24T16:44:46;3.42;;;1.63;;
46777;SDS011;32536;47.128;8.746;2022-12-24T16:47:31;3.58;;;1.95;;
46777;SDS011;32536;47.128;8.746;2022-12-24T16:50:01;4.20;;;2.22;;
46777;SDS011;32536;47.128;8.746;2022-12-24T16:52:30;3.78;;;1.83;;
46777;SDS011;32536;47.128;8.746;2022-12-24T16:55:00;3.22;;;1.70;;
46777;SDS011;32536;47.128;8.746;2022-12-24T16:57:27;3.13;;;1.80;;
46777;SDS011;32536;47.128;8.746;2022-12-24T16:59:54;4.32;;;2.03;;
46777;SDS011;32536;47.128;8.746;2022-12-24T17:02:21;3.25;;;1.73;;
46777;SDS011;32536;47.128;8.746;2022-12-24T17:04:49;3.47;;;1.77;;
46777;SDS011;32536;47.128;8.746;2022-12-24T17:07:17;2.25;;;1.27;;
46777;SDS011;32536;47.128;8.746;2022-12-24T17:09:46;2.50;;;1.48;;
46777;SDS011;32536;47.128;8.746;2022-12-24T17:12:14;1.92;;;1.20;;
46777;SDS011;32536;47.128;8.746;2022-12-24T17:14:41;1.50;;;1.05;;
46777;SDS011;32536;47.128;8.746;2022-12-24T17:17:18;2.53;;;1.45;;
46777;SDS011;32536;47.128;8.746;2022-12-24T17:19:52;2.35;;;1.35;;
46777;SDS011;32536;47.128;8.746;2022-12-24T17:22:20;2.47;;;1.25;;
46777;SDS011;32536;47.128;8.746;2022-12-24T17:24:47;1.77;;;0.98;;
46777;SDS011;32536;47.128;8.746;2022-12-24T17:27:15;3.35;;;1.70;;
46777;SDS011;32536;47.128;8.746;2022-12-24T17:29:41;3.13;;;1.65;;
46777;SDS011;32536;47.128;8.746;2022-12-24T17:32:08;1.52;;;0.80;;
46777;SDS011;32536;47.128;8.746;2022-12-24T17:34:35;2.53;;;1.30;;
46777;SDS011;32536;47.128;8.746;2022-12-24T17:37:02;2.05;;;1.13;;
46777;SDS011;32536;47.128;8.746;2022-12-24T17:39:29;2.47;;;1.15;;
46777;SDS011;32536;47.128;8.746;2022-12-24T17:41:55;2.75;;;1.42;;
46777;SDS011;32536;47.128;8.746;2022-12-24T17:44:22;1.83;;;1.15;;
46777;SDS011;32536;47.128;8.746;2022-12-24T17:46:49;2.72;;;1.30;;
46777;SDS011;32536;47.128;8.746;2022-12-24T17:49:16;1.90;;;1.02;;
46777;SDS011;32536;47.128;8.746;2022-12-24T17:51:43;2.03;;;1.17;;
46777;SDS011;32536;47.128;8.746;2022-12-24T17:54:11;3.13;;;1.70;;
46777;SDS011;32536;47.128;8.746;2022-12-24T17:56:38;2.58;;;1.52;;